Time;durP1;ratioP1;P1;durP2;ratioP2;P2;SDS_P1;SDS_P2;PMS_P1;PMS_P2;Temp;Humidity;BMP_temperature;BMP_pressure;BME280_temperature;BME280_humidity;BME280_pressure;Samples;Min_cycle;Max_cycle;Signal;HPM_P1;HPM_P2
2022/10/03 00:01:51;;;;;;;1.47;1.37;;;;;9.30;96731.00;;;;5115794;28;20216;-52
2022/10/03 00:04:39;;;;;;;1.07;0.97;;;;;9.30;96739.00;;;;5115800;28;20633;-54
2022/10/03 00:07:16;;;;;;;0.63;0.60;;;;;9.30;96742.00;;;;5115530;28;20218;-52
2022/10/03 00:10:02;;;;;;;0.97;0.90;;;;;9.30;96742.00;;;;5115581;28;20197;-52
2022/10/03 00:12:56;;;;;;;1.03;1.03;;;;;9.30;96761.00;;;;5115491;28;20273;-52
2022/10/03 00:15:27;;;;;;;1.20;1.20;;;;;9.30;96768.00;;;;5115445;28;20282;-52
2022/10/03 00:18:07;;;;;;;0.93;0.93;;;;;9.20;96769.00;;;;5097400;28;20599;-52
2022/10/03 00:20:48;;;;;;;1.87;1.67;;;;;9.20;96767.00;;;;5115375;28;20218;-52
2022/10/03 00:23:22;;;;;;;1.00;1.00;;;;;9.20;96774.00;;;;5115481;28;20629;-52
2022/10/03 00:26:25;;;;;;;0.83;0.83;;;;;9.10;96769.00;;;;5115285;28;20201;-52
2022/10/03 00:28:57;;;;;;;1.63;1.53;;;;;9.20;96759.00;;;;5115126;28;20298;-52
2022/10/03 00:31:32;;;;;;;0.73;0.73;;;;;9.20;96765.00;;;;5115313;28;20208;-52
2022/10/03 00:34:08;;;;;;;0.60;0.60;;;;;9.20;96766.00;;;;5115319;28;20208;-52
2022/10/03 00:36:48;;;;;;;0.63;0.63;;;;;9.30;96775.00;;;;5115227;28;20202;-51
2022/10/03 00:39:35;;;;;;;1.20;1.10;;;;;9.20;96781.00;;;;5115352;28;20262;-52
2022/10/03 00:42:34;;;;;;;3.17;2.97;;;;;9.20;96779.00;;;;5115140;28;20657;-51
2022/10/03 00:45:45;;;;;;;2.20;2.10;;;;;9.10;96769.00;;;;5113965;28;20206;-52
2022/10/03 00:48:34;;;;;;;0.83;0.83;;;;;9.10;96775.00;;;;5021525;28;20340;-52
2022/10/03 00:51:25;;;;;;;0.80;0.80;;;;;9.20;96768.00;;;;5115065;28;20190;-56
2022/10/03 00:54:09;;;;;;;0.63;0.63;;;;;9.10;96785.00;;;;5114876;28;20568;-52
2022/10/03 00:56:48;;;;;;;0.70;0.70;;;;;9.10;96782.00;;;;5114869;28;20652;-52
2022/10/03 00:59:32;;;;;;;0.80;0.80;;;;;9.10;96773.00;;;;5114874;28;20198;-52
2022/10/03 01:02:16;;;;;;;0.60;0.60;;;;;9.20;96785.00;;;;5114957;28;20639;-52
2022/10/03 01:04:55;;;;;;;1.93;1.63;;;;;9.20;96781.00;;;;5096924;28;20205;-54
2022/10/03 01:07:44;;;;;;;0.83;0.83;;;;;9.10;96775.00;;;;5114778;28;20210;-53
2022/10/03 01:10:21;;;;;;;0.90;0.90;;;;;9.10;96776.00;;;;5114895;28;20508;-53
2022/10/03 01:13:10;;;;;;;0.60;0.60;;;;;9.00;96779.00;;;;5096669;28;20686;-51
2022/10/03 01:15:45;;;;;;;0.53;0.53;;;;;9.00;96788.00;;;;5114633;28;20254;-52
2022/10/03 01:18:26;;;;;;;0.90;0.90;;;;;9.00;96795.00;;;;5096666;28;20201;-52
2022/10/03 01:21:01;;;;;;;0.57;0.57;;;;;8.90;96795.00;;;;5114535;28;20270;-52
2022/10/03 01:24:00;;;;;;;0.60;0.60;;;;;8.90;96798.00;;;;5114517;28;20210;-52
2022/10/03 01:26:47;;;;;;;0.83;0.83;;;;;8.90;96802.00;;;;5114426;28;20190;-51
2022/10/03 01:32:14;;;;;;;0.50;0.50;;;;;8.90;96789.00;;;;5096436;28;20201;-52
2022/10/03 01:34:45;;;;;;;0.50;0.50;;;;;8.90;96794.00;;;;5096578;28;20228;-52
2022/10/03 01:37:22;;;;;;;0.63;0.60;;;;;8.70;96791.00;;;;5114471;28;20190;-52
2022/10/03 01:40:02;;;;;;;0.60;0.60;;;;;8.50;96798.00;;;;5114282;28;20217;-52
2022/10/03 01:42:40;;;;;;;0.53;0.53;;;;;8.50;96804.00;;;;5114332;28;20280;-52
2022/10/03 01:45:25;;;;;;;0.50;0.50;;;;;8.50;96815.00;;;;5114041;28;20226;-52
2022/10/03 01:48:00;;;;;;;1.40;0.83;;;;;8.30;96817.00;;;;5114066;28;20218;-52
2022/10/03 01:50:32;;;;;;;0.50;0.50;;;;;8.50;96816.00;;;;5096162;28;20245;-52
2022/10/03 01:53:06;;;;;;;0.80;0.80;;;;;8.60;96828.00;;;;5113976;28;20200;-52
2022/10/03 01:55:43;;;;;;;0.57;0.57;;;;;8.50;96812.00;;;;5113618;28;20571;-52
2022/10/03 01:58:22;;;;;;;0.60;0.60;;;;;8.40;96821.00;;;;5095826;28;20214;-52
2022/10/03 02:00:57;;;;;;;0.67;0.67;;;;;8.50;96831.00;;;;5113877;28;20194;-52
2022/10/03 02:03:32;;;;;;;0.60;0.60;;;;;8.40;96817.00;;;;5113860;28;20301;-52
2022/10/03 02:06:07;;;;;;;0.80;0.80;;;;;8.50;96820.00;;;;5113931;28;20190;-52
2022/10/03 02:08:44;;;;;;;0.60;0.60;;;;;8.50;96817.00;;;;5113663;28;20270;-52
2022/10/03 02:11:21;;;;;;;0.70;0.70;;;;;8.50;96824.00;;;;5113694;28;20201;-52
2022/10/03 02:13:52;;;;;;;0.70;0.70;;;;;8.60;96821.00;;;;5113767;28;20217;-52
2022/10/03 02:16:33;;;;;;;0.40;0.40;;;;;8.60;96812.00;;;;5113716;28;20205;-52
2022/10/03 02:19:10;;;;;;;0.67;0.67;;;;;8.70;96812.00;;;;5113675;28;20221;-52
2022/10/03 02:21:48;;;;;;;0.67;0.67;;;;;8.60;96811.00;;;;5113630;28;20220;-52
2022/10/03 02:24:38;;;;;;;0.83;0.83;;;;;8.50;96821.00;;;;5095725;28;20671;-52
2022/10/03 02:27:40;;;;;;;0.60;0.60;;;;;8.50;96831.00;;;;5113507;28;20213;-54
2022/10/03 02:30:17;;;;;;;0.90;0.90;;;;;8.40;96831.00;;;;5113368;28;20370;-52
2022/10/03 02:33:31;;;;;;;0.40;0.40;;;;;8.40;96837.00;;;;5113496;28;20194;-52
2022/10/03 02:36:49;;;;;;;0.60;0.60;;;;;8.30;96832.00;;;;5112575;28;20247;-52
2022/10/03 02:39:37;;;;;;;0.60;0.60;;;;;8.30;96832.00;;;;5113600;28;20202;-53
2022/10/03 02:42:40;;;;;;;1.00;1.00;;;;;8.20;96840.00;;;;5113369;28;20217;-52
2022/10/03 02:45:46;;;;;;;0.60;0.60;;;;;8.20;96843.00;;;;5113472;28;20193;-52
2022/10/03 02:48:42;;;;;;;2.40;1.80;;;;;8.20;96839.00;;;;5031210;28;20230;-52
2022/10/03 02:51:48;;;;;;;0.90;0.90;;;;;8.30;96835.00;;;;5059953;28;20198;-52
2022/10/03 02:54:50;;;;;;;0.70;0.70;;;;;8.20;96834.00;;;;5113290;28;20193;-52
2022/10/03 02:57:48;;;;;;;1.10;1.10;;;;;8.20;96833.00;;;;5113120;28;20221;-52
2022/10/03 03:00:19;;;;;;;0.50;0.50;;;;;8.30;96825.00;;;;5113118;28;20625;-52
2022/10/03 03:03:27;;;;;;;0.60;0.60;;;;;8.30;96835.00;;;;5113085;28;20233;-52
2022/10/03 03:06:34;;;;;;;0.50;0.50;;;;;8.00;96823.00;;;;5095084;28;20221;-52
2022/10/03 03:09:35;;;;;;;0.60;0.60;;;;;8.00;96825.00;;;;5115929;28;20233;-52
2022/10/03 03:12:35;;;;;;;0.50;0.50;;;;;8.00;96814.00;;;;5115764;28;20197;-52
2022/10/03 03:15:42;;;;;;;0.67;0.67;;;;;7.90;96820.00;;;;5116509;28;20306;-52
2022/10/03 03:18:23;;;;;;;0.57;0.57;;;;;7.90;96819.00;;;;5098340;28;20497;-52
2022/10/03 03:21:04;;;;;;;0.60;0.60;;;;;7.90;96817.00;;;;5116395;28;20233;-52
2022/10/03 03:23:50;;;;;;;0.77;0.77;;;;;7.90;96812.00;;;;5116351;28;20210;-52
2022/10/03 03:26:40;;;;;;;0.50;0.50;;;;;7.90;96815.00;;;;5116334;28;20286;-52
2022/10/03 03:29:16;;;;;;;0.50;0.50;;;;;7.70;96813.00;;;;5061087;28;20336;-52
2022/10/03 03:31:51;;;;;;;0.60;0.60;;;;;7.70;96807.00;;;;5116176;28;20218;-52
2022/10/03 03:34:25;;;;;;;0.90;0.90;;;;;7.90;96820.00;;;;5116246;28;20202;-52
2022/10/03 03:36:59;;;;;;;0.50;0.50;;;;;7.90;96810.00;;;;5116119;28;20275;-52
2022/10/03 03:39:45;;;;;;;0.50;0.50;;;;;7.90;96816.00;;;;5116198;28;20209;-52
2022/10/03 03:42:36;;;;;;;0.83;0.83;;;;;8.00;96807.00;;;;5115985;28;20221;-52
2022/10/03 03:45:15;;;;;;;0.40;0.40;;;;;8.00;96812.00;;;;5116114;28;20205;-50
2022/10/03 03:48:07;;;;;;;0.60;0.60;;;;;8.10;96802.00;;;;5115921;28;20225;-50
2022/10/03 03:50:47;;;;;;;0.67;0.67;;;;;8.10;96808.00;;;;5116148;28;20205;-50
2022/10/03 03:53:54;;;;;;;0.50;0.50;;;;;8.10;96820.00;;;;5115804;28;20210;-51
2022/10/03 03:56:38;;;;;;;0.50;0.50;;;;;8.10;96820.00;;;;5115751;28;20627;-50
2022/10/03 03:59:21;;;;;;;0.80;0.80;;;;;8.20;96829.00;;;;5097778;28;20225;-51
2022/10/03 04:02:10;;;;;;;0.70;0.70;;;;;8.20;96834.00;;;;5115855;28;20255;-51
2022/10/03 04:04:54;;;;;;;0.80;0.80;;;;;8.20;96831.00;;;;5097754;28;20232;-51
2022/10/03 04:07:32;;;;;;;0.97;0.97;;;;;8.10;96830.00;;;;5115713;28;20218;-51
2022/10/03 04:10:20;;;;;;;0.50;0.50;;;;;8.00;96822.00;;;;5115674;28;20303;-51
2022/10/03 04:13:05;;;;;;;0.50;0.50;;;;;8.00;96827.00;;;;5115596;28;20194;-51
2022/10/03 04:15:50;;;;;;;0.80;0.80;;;;;7.90;96823.00;;;;5115498;28;20653;-51
2022/10/03 04:21:48;;;;;;;0.57;0.57;;;;;7.80;96829.00;;;;5097689;28;20305;-51
2022/10/03 04:24:48;;;;;;;0.60;0.60;;;;;7.70;96833.00;;;;5115463;28;20636;-50
2022/10/03 04:27:32;;;;;;;0.50;0.50;;;;;7.70;96829.00;;;;5115272;28;20225;-51
2022/10/03 04:30:08;;;;;;;0.63;0.63;;;;;7.70;96846.00;;;;5115361;28;20641;-51
2022/10/03 04:33:08;;;;;;;0.73;0.73;;;;;7.80;96837.00;;;;5115111;28;20220;-51
2022/10/03 04:36:13;;;;;;;0.70;0.70;;;;;7.70;96836.00;;;;5097636;28;20512;-51
2022/10/03 04:38:48;;;;;;;0.67;0.67;;;;;7.80;96844.00;;;;5115182;28;20221;-53
2022/10/03 04:41:28;;;;;;;0.70;0.70;;;;;7.80;96851.00;;;;5097305;28;20274;-51
2022/10/03 04:44:04;;;;;;;0.63;0.63;;;;;7.80;96843.00;;;;5115216;28;20222;-51
2022/10/03 04:46:39;;;;;;;1.20;1.10;;;;;7.90;96855.00;;;;5115062;28;20217;-51
2022/10/03 04:49:16;;;;;;;1.07;0.87;;;;;7.90;96850.00;;;;5114867;28;20230;-51
2022/10/03 04:51:55;;;;;;;0.80;0.80;;;;;7.70;96848.00;;;;5097135;28;20246;-51
2022/10/03 04:54:29;;;;;;;0.60;0.60;;;;;7.60;96854.00;;;;5114865;28;20212;-51
2022/10/03 04:57:06;;;;;;;0.83;0.83;;;;;7.70;96860.00;;;;5114981;28;20194;-51
2022/10/03 04:59:54;;;;;;;1.67;0.80;;;;;7.80;96864.00;;;;5114947;28;20178;-53
2022/10/03 05:02:47;;;;;;;0.60;0.60;;;;;7.80;96858.00;;;;5114500;28;20222;-51
2022/10/03 05:05:45;;;;;;;0.80;0.80;;;;;7.80;96858.00;;;;5114901;28;20194;-51
2022/10/03 05:08:27;;;;;;;0.77;0.77;;;;;7.80;96867.00;;;;5111584;28;20233;-51
2022/10/03 05:11:17;;;;;;;0.70;0.70;;;;;7.90;96871.00;;;;5114695;28;20230;-51
2022/10/03 05:13:59;;;;;;;0.80;0.80;;;;;7.90;96871.00;;;;5114662;28;20309;-51
2022/10/03 05:16:37;;;;;;;0.97;0.97;;;;;7.90;96869.00;;;;5114647;28;20190;-51
2022/10/03 05:19:25;;;;;;;0.60;0.60;;;;;8.00;96871.00;;;;5096497;28;20210;-51
2022/10/03 05:21:59;;;;;;;0.90;0.90;;;;;8.00;96864.00;;;;5110726;28;20509;-51
2022/10/03 05:24:36;;;;;;;0.90;0.90;;;;;8.00;96869.00;;;;5114591;28;20189;-51
2022/10/03 05:27:13;;;;;;;0.70;0.70;;;;;8.00;96873.00;;;;5114558;28;20197;-51
2022/10/03 05:29:51;;;;;;;0.60;0.60;;;;;8.00;96879.00;;;;5113197;28;20229;-51
2022/10/03 05:32:26;;;;;;;1.40;1.40;;;;;8.00;96884.00;;;;5114285;28;20254;-55
2022/10/03 05:35:23;;;;;;;1.43;1.30;;;;;8.00;96885.00;;;;5114466;28;20232;-52
2022/10/03 05:38:21;;;;;;;0.97;0.97;;;;;8.00;96892.00;;;;5114519;28;20182;-51
2022/10/03 05:41:00;;;;;;;1.60;1.50;;;;;8.00;96895.00;;;;5113374;28;20636;-50
2022/10/03 05:43:43;;;;;;;0.87;0.87;;;;;8.10;96902.00;;;;5096320;28;20281;-51
2022/10/03 05:46:20;;;;;;;0.80;0.80;;;;;8.10;96906.00;;;;5114108;28;20216;-51
2022/10/03 05:48:52;;;;;;;1.17;1.17;;;;;8.10;96910.00;;;;5096113;28;20221;-51
2022/10/03 05:51:47;;;;;;;0.80;0.80;;;;;8.10;96907.00;;;;5114067;28;20641;-51
2022/10/03 05:54:41;;;;;;;0.53;0.53;;;;;8.10;96906.00;;;;5096157;28;20202;-51
2022/10/03 05:57:45;;;;;;;0.90;0.90;;;;;8.20;96907.00;;;;5113964;28;20282;-51
2022/10/03 06:00:19;;;;;;;2.93;1.10;;;;;8.20;96911.00;;;;5071460;28;20229;-52
2022/10/03 06:03:29;;;;;;;0.87;0.87;;;;;8.30;96911.00;;;;5096143;28;20222;-51
2022/10/03 06:06:10;;;;;;;0.73;0.73;;;;;8.30;96911.00;;;;5095848;28;20197;-51
2022/10/03 06:09:12;;;;;;;0.60;0.60;;;;;8.40;96913.00;;;;5113714;28;20248;-51
2022/10/03 06:11:58;;;;;;;0.60;0.60;;;;;8.40;96905.00;;;;5113824;28;20174;-51
2022/10/03 06:14:38;;;;;;;1.27;1.27;;;;;8.50;96912.00;;;;5113659;28;20216;-51
2022/10/03 06:17:29;;;;;;;0.93;0.93;;;;;8.60;96913.00;;;;5113643;28;20214;-51
2022/10/03 06:20:03;;;;;;;1.10;1.10;;;;;8.70;96914.00;;;;5113635;28;20225;-51
2022/10/03 06:22:57;;;;;;;2.17;1.17;;;;;8.80;96913.00;;;;5113494;28;20202;-53
2022/10/03 06:26:03;;;;;;;0.90;0.90;;;;;8.90;96917.00;;;;5095696;28;20236;-53
2022/10/03 06:29:01;;;;;;;1.10;1.10;;;;;8.90;96912.00;;;;5113443;28;20249;-52
2022/10/03 06:32:18;;;;;;;0.67;0.67;;;;;8.90;96917.00;;;;5111545;28;20256;-51
2022/10/03 06:35:14;;;;;;;1.97;1.80;;;;;9.00;96914.00;;;;5113507;28;20198;-51
2022/10/03 06:38:21;;;;;;;1.70;1.60;;;;;9.10;96927.00;;;;5113306;28;20217;-51
2022/10/03 06:41:17;;;;;;;2.40;2.20;;;;;9.10;96929.00;;;;5113127;28;20174;-51
2022/10/03 06:44:02;;;;;;;2.17;1.50;;;;;9.10;96930.00;;;;5114856;28;20193;-51
2022/10/03 06:47:02;;;;;;;1.10;1.10;;;;;9.10;96926.00;;;;5116718;28;20205;-52
2022/10/03 06:50:11;;;;;;;1.13;1.13;;;;;9.00;96939.00;;;;5116805;28;20217;-51
2022/10/03 06:53:00;;;;;;;1.23;1.13;;;;;9.10;96936.00;;;;5116741;28;20248;-52
2022/10/03 06:55:55;;;;;;;1.73;1.63;;;;;9.10;96936.00;;;;5116706;28;20205;-51
2022/10/03 06:59:03;;;;;;;0.90;0.90;;;;;9.10;96951.00;;;;5116789;28;20288;-51
2022/10/03 07:01:55;;;;;;;1.07;1.07;;;;;9.20;96954.00;;;;5116604;28;20622;-51
2022/10/03 07:04:46;;;;;;;1.67;1.57;;;;;9.30;96952.00;;;;5116678;28;20258;-52
2022/10/03 07:07:36;;;;;;;0.87;0.87;;;;;9.50;96948.00;;;;5116723;28;20546;-54
2022/10/03 07:10:28;;;;;;;1.73;1.63;;;;;9.60;96947.00;;;;5069793;28;20240;-53
2022/10/03 07:13:30;;;;;;;0.80;0.80;;;;;9.70;96955.00;;;;5116872;28;20269;-51
2022/10/03 07:16:36;;;;;;;0.70;0.70;;;;;9.60;96958.00;;;;5116454;28;20243;-51
2022/10/03 07:19:32;;;;;;;1.00;1.00;;;;;9.60;96956.00;;;;5099416;28;20202;-51
2022/10/03 07:22:43;;;;;;;1.60;1.50;;;;;9.60;96964.00;;;;5116551;28;20235;-51
2022/10/03 07:25:55;;;;;;;1.20;1.13;;;;;9.70;96957.00;;;;5116366;28;20194;-52
2022/10/03 07:28:52;;;;;;;1.73;1.63;;;;;9.80;96961.00;;;;5116266;28;20221;-52
2022/10/03 07:31:32;;;;;;;1.17;1.17;;;;;9.90;96968.00;;;;5115189;28;20206;-52
2022/10/03 07:34:37;;;;;;;0.80;0.80;;;;;9.90;96968.00;;;;5116127;28;20205;-52
2022/10/03 07:40:32;;;;;;;1.07;1.07;;;;;10.00;96968.00;;;;5116153;28;20649;-52
2022/10/03 07:43:30;;;;;;;0.90;0.90;;;;;10.10;96965.00;;;;5115913;28;20228;-51
2022/10/03 07:46:16;;;;;;;0.80;0.80;;;;;10.30;96974.00;;;;5115975;28;20202;-52
2022/10/03 07:49:17;;;;;;;4.13;2.00;;;;;10.30;96977.00;;;;5115936;28;20225;-52
2022/10/03 07:51:59;;;;;;;1.00;1.00;;;;;10.30;96971.00;;;;5111012;28;20209;-52
2022/10/03 07:54:46;;;;;;;2.30;2.20;;;;;10.30;96971.00;;;;5115400;28;20586;-52
2022/10/03 07:57:30;;;;;;;1.33;1.33;;;;;10.50;96974.00;;;;5097729;28;20756;-52
2022/10/03 08:00:12;;;;;;;2.53;1.57;;;;;10.60;96971.00;;;;5115749;28;20254;-52
2022/10/03 08:03:27;;;;;;;2.00;1.20;;;;;10.40;96977.00;;;;5115669;28;20625;-52
2022/10/03 08:06:14;;;;;;;2.37;1.97;;;;;10.50;96978.00;;;;5115663;28;20186;-52
2022/10/03 08:09:18;;;;;;;1.20;1.20;;;;;10.40;96977.00;;;;5097668;28;20266;-52
2022/10/03 08:12:21;;;;;;;0.80;0.80;;;;;10.30;96978.00;;;;5114601;28;20284;-52
2022/10/03 08:14:57;;;;;;;1.40;1.30;;;;;10.30;96991.00;;;;5115516;28;20193;-52
2022/10/03 08:18:02;;;;;;;2.60;2.23;;;;;10.40;96986.00;;;;5115457;28;20263;-52
2022/10/03 08:20:50;;;;;;;1.43;1.43;;;;;10.50;96978.00;;;;5115424;28;20629;-52
2022/10/03 08:23:38;;;;;;;2.47;2.27;;;;;10.60;96989.00;;;;5114341;28;20251;-52
2022/10/03 08:26:16;;;;;;;1.00;1.00;;;;;10.30;96981.00;;;;5115281;28;20706;-52
2022/10/03 08:29:07;;;;;;;2.73;2.53;;;;;10.40;96980.00;;;;5097162;28;20226;-54
2022/10/03 08:31:54;;;;;;;1.23;1.23;;;;;10.60;96978.00;;;;5115362;28;20633;-52
2022/10/03 08:35:00;;;;;;;1.13;0.90;;;;;10.60;96977.00;;;;5115194;28;20224;-52
2022/10/03 08:38:03;;;;;;;1.33;1.23;;;;;10.90;96972.00;;;;5055972;28;20228;-52
2022/10/03 08:41:12;;;;;;;2.90;1.93;;;;;11.00;96978.00;;;;5115156;28;20190;-52
2022/10/03 08:44:14;;;;;;;1.93;1.83;;;;;11.20;96991.00;;;;5114961;28;20222;-53
2022/10/03 08:47:06;;;;;;;1.07;1.07;;;;;11.30;96981.00;;;;5114875;28;20201;-52
2022/10/03 08:50:05;;;;;;;4.23;2.30;;;;;11.40;96981.00;;;;5069906;28;20708;-52
2022/10/03 08:52:49;;;;;;;1.90;1.80;;;;;11.60;96983.00;;;;5114114;28;20202;-52
2022/10/03 08:55:41;;;;;;;1.23;0.83;;;;;11.70;96981.00;;;;5114800;28;20218;-51
2022/10/03 08:58:34;;;;;;;5.70;2.30;;;;;11.80;96996.00;;;;5114818;28;20195;-52
2022/10/03 09:01:27;;;;;;;3.57;1.80;;;;;11.60;96989.00;;;;5096713;28;20279;-52
2022/10/03 09:04:30;;;;;;;0.90;0.90;;;;;11.70;96989.00;;;;5114820;28;20241;-53
2022/10/03 09:07:13;;;;;;;1.53;1.43;;;;;11.80;97001.00;;;;5088655;28;20210;-52
2022/10/03 09:10:24;;;;;;;1.30;1.30;;;;;11.70;96996.00;;;;5114895;28;20253;-53
2022/10/03 09:13:31;;;;;;;1.20;1.20;;;;;11.70;96996.00;;;;5114646;28;20647;-52
2022/10/03 09:16:32;;;;;;;1.33;1.33;;;;;11.80;96993.00;;;;5114561;28;20308;-52
2022/10/03 09:19:17;;;;;;;0.93;0.93;;;;;12.00;96988.00;;;;5114490;28;20197;-52
2022/10/03 09:22:09;;;;;;;1.63;1.57;;;;;11.80;96984.00;;;;5114524;28;20205;-52
2022/10/03 09:25:10;;;;;;;2.97;1.97;;;;;11.60;96988.00;;;;5096484;28;20244;-53
2022/10/03 09:28:16;;;;;;;1.17;1.17;;;;;11.70;96989.00;;;;5114398;28;20266;-52
2022/10/03 09:31:03;;;;;;;2.83;1.30;;;;;11.80;96992.00;;;;5096303;28;20221;-52
2022/10/03 09:34:17;;;;;;;1.63;1.53;;;;;11.90;96985.00;;;;5114389;28;20213;-56
2022/10/03 09:37:20;;;;;;;1.33;1.23;;;;;12.00;96985.00;;;;5114331;28;20680;-54
2022/10/03 09:40:36;;;;;;;2.10;1.73;;;;;11.80;96990.00;;;;5097188;28;20225;-59
2022/10/03 09:43:49;;;;;;;2.40;2.20;;;;;12.00;96982.00;;;;5114139;28;20664;-52
2022/10/03 09:47:21;;;;;;;0.77;0.77;;;;;11.80;96985.00;;;;5011981;28;20249;-53
2022/10/03 09:50:20;;;;;;;0.80;0.80;;;;;12.00;96979.00;;;;5112891;28;20672;-52
2022/10/03 09:53:23;;;;;;;1.67;1.57;;;;;12.10;96985.00;;;;5114095;28;20193;-53
2022/10/03 09:56:19;;;;;;;1.60;1.50;;;;;12.10;96985.00;;;;5072731;28;20672;-52
2022/10/03 09:59:04;;;;;;;0.90;0.90;;;;;12.30;96979.00;;;;5114046;28;20205;-53
2022/10/03 10:01:36;;;;;;;0.97;0.97;;;;;12.40;96981.00;;;;5113884;28;20649;-53
2022/10/03 10:04:41;;;;;;;0.90;0.90;;;;;12.40;96986.00;;;;5113989;28;20190;-52
2022/10/03 10:07:39;;;;;;;1.60;1.53;;;;;12.30;96976.00;;;;5113735;28;20222;-50
2022/10/03 10:10:44;;;;;;;1.53;1.43;;;;;12.60;96984.00;;;;5113911;28;20215;-51
2022/10/03 10:13:36;;;;;;;0.90;0.90;;;;;12.70;96980.00;;;;5095834;28;20236;-52
2022/10/03 10:16:19;;;;;;;1.50;1.40;;;;;12.50;96984.00;;;;5113534;28;20248;-52
2022/10/03 10:19:15;;;;;;;1.63;1.53;;;;;12.30;96989.00;;;;5113674;28;20693;-52
2022/10/03 10:22:04;;;;;;;1.50;1.40;;;;;12.20;96986.00;;;;5095430;28;20354;-52
2022/10/03 10:25:12;;;;;;;1.97;1.87;;;;;11.90;96991.00;;;;5113565;28;20259;-51
2022/10/03 10:28:13;;;;;;;1.07;1.07;;;;;12.00;96980.00;;;;5113477;28;20213;-52
2022/10/03 10:31:21;;;;;;;1.50;1.40;;;;;12.50;96969.00;;;;5091665;28;20201;-53
2022/10/03 10:34:22;;;;;;;1.03;1.03;;;;;13.20;96973.00;;;;5113506;28;20259;-52
2022/10/03 10:37:46;;;;;;;1.23;1.20;;;;;13.00;96972.00;;;;5058505;28;20232;-52
2022/10/03 10:40:45;;;;;;;1.47;1.47;;;;;13.80;96964.00;;;;5113323;28;20202;-51
2022/10/03 10:43:52;;;;;;;0.90;0.90;;;;;14.10;96966.00;;;;5113159;28;20274;-53
2022/10/03 10:47:04;;;;;;;1.30;1.30;;;;;14.00;96957.00;;;;5113268;28;20190;-51
2022/10/03 10:50:19;;;;;;;1.83;1.77;;;;;13.70;96956.00;;;;5113133;28;20221;-51
2022/10/03 10:53:36;;;;;;;1.50;1.47;;;;;14.40;96952.00;;;;5095527;28;20592;-51
2022/10/03 10:56:51;;;;;;;1.10;1.10;;;;;14.20;96945.00;;;;5039097;28;20292;-52
2022/10/03 11:00:00;;;;;;;1.73;1.63;;;;;13.70;96951.00;;;;5095440;28;20289;-51
2022/10/03 11:03:21;;;;;;;1.30;1.30;;;;;14.00;96944.00;;;;5095066;28;20563;-52
2022/10/03 11:06:31;;;;;;;1.13;1.13;;;;;14.30;96945.00;;;;5113229;28;20217;-53
2022/10/03 11:09:36;;;;;;;1.40;1.17;;;;;15.00;96943.00;;;;5113137;28;20670;-52
2022/10/03 11:12:38;;;;;;;3.40;1.47;;;;;14.90;96945.00;;;;5113091;28;20228;-52
2022/10/03 11:15:46;;;;;;;0.93;0.93;;;;;15.10;96948.00;;;;5057781;28;20575;-52
2022/10/03 11:18:47;;;;;;;3.77;0.83;;;;;15.30;96947.00;;;;5111956;28;20214;-51
2022/10/03 11:22:04;;;;;;;1.93;1.67;;;;;15.00;96950.00;;;;5112960;28;20200;-52
2022/10/03 11:25:18;;;;;;;1.13;1.13;;;;;15.10;96962.00;;;;5010949;28;20228;-52
2022/10/03 11:28:34;;;;;;;2.33;2.10;;;;;14.70;96959.00;;;;5112888;28;20228;-52
2022/10/03 11:31:34;;;;;;;1.10;1.10;;;;;15.10;96963.00;;;;5116398;28;20204;-52
2022/10/03 11:34:42;;;;;;;1.27;1.17;;;;;14.90;96966.00;;;;5116289;28;20210;-53
2022/10/03 11:37:37;;;;;;;0.90;0.90;;;;;15.10;96971.00;;;;5116240;28;20235;-51
2022/10/03 11:40:23;;;;;;;0.80;0.80;;;;;14.60;96965.00;;;;5111384;28;20242;-51
2022/10/03 11:43:03;;;;;;;0.70;0.70;;;;;14.10;96970.00;;;;5116253;28;20519;-52
2022/10/03 11:45:35;;;;;;;1.33;1.23;;;;;14.10;96962.00;;;;5116092;28;20224;-52
2022/10/03 11:48:23;;;;;;;0.90;0.90;;;;;14.10;96968.00;;;;5116085;28;20218;-53
2022/10/03 11:50:53;;;;;;;1.00;1.00;;;;;14.20;96963.00;;;;5116388;28;20217;-53
2022/10/03 11:53:35;;;;;;;0.70;0.70;;;;;14.30;96968.00;;;;5116113;28;20213;-52
2022/10/03 11:56:35;;;;;;;2.47;1.17;;;;;14.60;96961.00;;;;5115888;28;20617;-53
2022/10/03 11:59:25;;;;;;;1.10;1.10;;;;;14.60;96966.00;;;;5013877;28;20201;-52
2022/10/03 12:02:14;;;;;;;1.30;1.13;;;;;14.60;96962.00;;;;5109703;28;20371;-52
2022/10/03 12:04:55;;;;;;;0.80;0.80;;;;;14.70;96946.00;;;;5115914;28;20205;-52
2022/10/03 12:10:43;;;;;;;0.70;0.70;;;;;16.60;96926.00;;;;5115954;28;20320;-52
2022/10/03 12:13:13;;;;;;;1.07;1.07;;;;;17.10;96919.00;;;;5115709;28;20724;-52
2022/10/03 12:15:45;;;;;;;0.97;0.97;;;;;17.50;96940.00;;;;5115720;28;20190;-53
2022/10/03 12:18:17;;;;;;;2.93;1.27;;;;;17.60;96937.00;;;;5115531;28;20221;-52
2022/10/03 12:21:07;;;;;;;0.87;0.87;;;;;17.60;96947.00;;;;5097801;28;20178;-52
2022/10/03 12:24:03;;;;;;;1.00;1.00;;;;;17.70;96935.00;;;;5097577;28;20226;-52
2022/10/03 12:26:43;;;;;;;1.00;1.00;;;;;18.20;96923.00;;;;5094233;28;20202;-52
2022/10/03 12:29:12;;;;;;;1.53;1.43;;;;;18.90;96930.00;;;;5115275;28;20228;-52
2022/10/03 12:31:48;;;;;;;0.80;0.80;;;;;19.10;96923.00;;;;5115380;28;20186;-52
2022/10/03 12:34:32;;;;;;;4.20;1.40;;;;;19.10;96927.00;;;;5115249;28;20189;-52
2022/10/03 12:37:23;;;;;;;0.60;0.60;;;;;18.40;96919.00;;;;5115360;28;20226;-56
2022/10/03 12:40:04;;;;;;;1.33;1.33;;;;;17.70;96923.00;;;;5114101;28;20194;-54
2022/10/03 12:42:36;;;;;;;1.93;1.80;;;;;17.20;96915.00;;;;5115371;28;20197;-57
2022/10/03 12:45:11;;;;;;;1.10;1.10;;;;;16.30;96917.00;;;;5115353;28;20224;-54
2022/10/03 12:47:55;;;;;;;1.73;1.63;;;;;16.50;96918.00;;;;5115155;28;20497;-52
2022/10/03 12:50:37;;;;;;;1.93;1.80;;;;;16.70;96914.00;;;;5115154;28;20182;-52
2022/10/03 12:53:25;;;;;;;1.47;1.37;;;;;16.90;96916.00;;;;5115102;28;20186;-51
2022/10/03 12:56:06;;;;;;;0.63;0.63;;;;;17.20;96912.00;;;;5115111;28;20194;-52
2022/10/03 12:58:50;;;;;;;0.90;0.90;;;;;17.20;96914.00;;;;5096991;28;20236;-51
2022/10/03 13:01:27;;;;;;;0.83;0.83;;;;;17.30;96914.00;;;;5096925;28;20186;-52
2022/10/03 13:03:58;;;;;;;1.33;1.27;;;;;17.30;96918.00;;;;5114860;28;20218;-52
2022/10/03 13:06:40;;;;;;;0.83;0.83;;;;;17.50;96916.00;;;;5096884;28;20220;-52
2022/10/03 13:09:20;;;;;;;1.57;1.30;;;;;17.20;96918.00;;;;5114660;28;20229;-52
2022/10/03 13:11:57;;;;;;;0.77;0.77;;;;;17.10;96917.00;;;;5114827;28;20205;-52
2022/10/03 13:15:02;;;;;;;1.50;1.17;;;;;17.00;96918.00;;;;5115092;28;20259;-54
2022/10/03 13:17:40;;;;;;;1.40;1.30;;;;;16.70;96927.00;;;;5114616;28;20201;-54
2022/10/03 13:20:14;;;;;;;1.00;0.93;;;;;16.70;96932.00;;;;5114551;28;20225;-53
2022/10/03 13:22:46;;;;;;;0.90;0.90;;;;;16.30;96920.00;;;;5114601;28;20216;-52
2022/10/03 13:25:20;;;;;;;1.10;1.10;;;;;16.30;96925.00;;;;5114589;28;20218;-52
2022/10/03 13:27:58;;;;;;;0.90;0.83;;;;;16.20;96925.00;;;;5114447;28;20189;-52
2022/10/03 13:30:29;;;;;;;1.53;1.43;;;;;15.80;96925.00;;;;5114405;28;20241;-52
2022/10/03 13:32:59;;;;;;;0.73;0.73;;;;;15.70;96918.00;;;;5096366;28;20198;-53
2022/10/03 13:38:58;;;;;;;1.87;1.67;;;;;15.90;96921.00;;;;5114344;28;20210;-52
2022/10/03 13:41:35;;;;;;;0.67;0.67;;;;;16.20;96923.00;;;;5114174;28;20286;-52
2022/10/03 13:44:10;;;;;;;0.80;0.80;;;;;16.40;96927.00;;;;5114252;28;20174;-52
2022/10/03 13:46:47;;;;;;;0.93;0.93;;;;;16.50;96920.00;;;;5114141;28;20221;-52
2022/10/03 13:49:22;;;;;;;1.20;1.20;;;;;16.40;96910.00;;;;5114120;28;20302;-52
2022/10/03 13:51:56;;;;;;;1.77;1.43;;;;;17.30;96894.00;;;;5113812;28;20234;-52
2022/10/03 13:54:45;;;;;;;1.00;1.00;;;;;20.30;96846.00;;;;5114198;28;20202;-53
2022/10/03 13:57:19;;;;;;;2.23;1.37;;;;;24.00;96839.00;;;;5114030;28;20200;-53
2022/10/03 13:59:55;;;;;;;0.70;0.70;;;;;25.80;96838.00;;;;5114209;28;20178;-54
2022/10/03 14:02:52;;;;;;;0.50;0.50;;;;;27.50;96846.00;;;;5114029;28;20205;-53
2022/10/03 14:05:59;;;;;;;0.73;0.73;;;;;30.30;96860.00;;;;5079252;28;20247;-51
2022/10/03 14:08:50;;;;;;;0.45;0.45;;;;;31.10;96845.00;;;;5011998;28;20597;-51
2022/10/03 14:11:25;;;;;;;1.08;1.08;;;;;32.10;96846.00;;;;5096011;28;20292;-53
2022/10/03 14:14:18;;;;;;;0.80;0.80;;;;;33.30;96850.00;;;;5095990;28;20538;-51
2022/10/03 14:16:53;;;;;;;1.10;1.00;;;;;33.50;96861.00;;;;5113668;28;20202;-52
2022/10/03 14:19:35;;;;;;;2.63;1.25;;;;;31.10;96856.00;;;;5113640;28;20197;-53
2022/10/03 14:22:17;;;;;;;0.80;0.80;;;;;32.10;96852.00;;;;5113636;28;20190;-53
2022/10/03 14:25:00;;;;;;;0.82;0.82;;;;;33.30;96861.00;;;;5113625;28;20229;-52
2022/10/03 14:27:42;;;;;;;1.08;1.08;;;;;33.20;96866.00;;;;5113734;28;20194;-53
2022/10/03 14:30:12;;;;;;;2.05;1.10;;;;;31.90;96891.00;;;;5113713;28;20225;-53